Kedves Pilóták, Oktatók, Növendékek!

Az alábbi menüpontban szeretnénk összefoglalni néhány fontos és hasznos információt, linket, amely segíthet a repülések megtervezésében.

Ha bármilyen javaslatod van a tartalommal kapcsolatban, kérlek Ez az e-mail-cím a szpemrobotok elleni védelem alatt áll. Megtekintéséhez engedélyeznie kell a JavaScript használatát.meg nekünk.

 

Jó leszállást!

Repüléssel kapcsolatos hírek

2022. július 02.

Felhőkép 

Felhőkép

Széltérkép

Széltérkép

Győr-Pér Repülőtér

Élő webkamera kép

 Nagyobb kép

Győr-Pér Repülőtér

[Source: ADDS]
METAR
LHPR 021745Z AUTO 35010KT CAVOK 25/12 Q1020 =
LHPR 021715Z 0218/0303 34012KT CAVOK BECMG 0218/0221 34007KT BECMG 0221/0224 VRB02KT
TAF
LHPR 021715Z 0218/0303 34012KT CAVOK BECMG 0218/0221 34007KT BECMG 0221/0224 VRB02KT =
SR / SS: 02:55 / 18:50 UTC (Napkelte / Napnyugta 2022-07-02)

Kapcsolat

Telephely:     9099 Pér, Repülõtér

Klubhelyiség: 9021 Gyõr, Városház tér 3.

E-mail: info@aeroclub-gyor.hu

Telefon: 06-20-777-9106

Adószám: 19113832-2-08

JSN Metro template designed by JoomlaShine.com